sensor_id;sensor_type;location;lat;lon;timestamp;pressure;altitude;pressure_sealevel;temperature;humidity
60433;BME280;46286;48.098;11.590;2023-04-05T00:00:27;95888.88;;;-3.86;100.00
60433;BME280;46286;48.098;11.590;2023-04-05T00:03:11;95896.38;;;-4.08;100.00
60433;BME280;46286;48.098;11.590;2023-04-05T00:05:37;95892.16;;;-4.01;100.00
60433;BME280;46286;48.098;11.590;2023-04-05T00:08:04;95892.81;;;-4.07;100.00
60433;BME280;46286;48.098;11.590;2023-04-05T00:10:32;95882.81;;;-3.93;100.00
60433;BME280;46286;48.098;11.590;2023-04-05T00:12:58;95894.44;;;-4.14;100.00
60433;BME280;46286;48.098;11.590;2023-04-05T00:15:26;95889.63;;;-4.09;100.00
60433;BME280;46286;48.098;11.590;2023-04-05T00:17:52;95885.88;;;-4.38;100.00
60433;BME280;46286;48.098;11.590;2023-04-05T00:20:18;95886.56;;;-4.44;100.00
60433;BME280;46286;48.098;11.590;2023-04-05T00:22:44;95882.03;;;-4.33;100.00
60433;BME280;46286;48.098;11.590;2023-04-05T00:25:11;95893.28;;;-4.43;100.00
60433;BME280;46286;48.098;11.590;2023-04-05T00:27:38;95888.47;;;-4.46;100.00
60433;BME280;46286;48.098;11.590;2023-04-05T00:30:06;95885.22;;;-4.40;100.00
60433;BME280;46286;48.098;11.590;2023-04-05T00:32:32;95883.09;;;-4.76;100.00
60433;BME280;46286;48.098;11.590;2023-04-05T00:35:00;95879.56;;;-4.75;100.00
60433;BME280;46286;48.098;11.590;2023-04-05T00:37:26;95873.97;;;-4.78;100.00
60433;BME280;46286;48.098;11.590;2023-04-05T00:39:51;95874.44;;;-4.83;100.00
60433;BME280;46286;48.098;11.590;2023-04-05T00:42:18;95877.00;;;-4.83;100.00
60433;BME280;46286;48.098;11.590;2023-04-05T00:44:43;95873.19;;;-4.95;100.00
60433;BME280;46286;48.098;11.590;2023-04-05T00:47:09;95870.59;;;-4.87;100.00
60433;BME280;46286;48.098;11.590;2023-04-05T00:49:35;95876.22;;;-4.83;100.00
60433;BME280;46286;48.098;11.590;2023-04-05T00:52:02;95868.69;;;-4.93;100.00
60433;BME280;46286;48.098;11.590;2023-04-05T00:54:28;95864.53;;;-5.02;100.00
60433;BME280;46286;48.098;11.590;2023-04-05T00:56:55;95858.47;;;-5.18;100.00
60433;BME280;46286;48.098;11.590;2023-04-05T00:59:20;95859.75;;;-5.14;100.00
60433;BME280;46286;48.098;11.590;2023-04-05T01:01:49;95857.97;;;-5.05;100.00
60433;BME280;46286;48.098;11.590;2023-04-05T01:04:25;95858.75;;;-5.05;100.00
60433;BME280;46286;48.098;11.590;2023-04-05T01:07:16;95862.31;;;-5.06;100.00
60433;BME280;46286;48.098;11.590;2023-04-05T01:09:59;95856.22;;;-5.13;100.00
60433;BME280;46286;48.098;11.590;2023-04-05T01:12:31;95858.91;;;-5.14;100.00
60433;BME280;46286;48.098;11.590;2023-04-05T01:14:58;95844.69;;;-5.17;100.00
60433;BME280;46286;48.098;11.590;2023-04-05T01:17:26;95845.13;;;-5.13;100.00
60433;BME280;46286;48.098;11.590;2023-04-05T01:19:55;95848.81;;;-5.16;100.00
60433;BME280;46286;48.098;11.590;2023-04-05T01:22:54;95840.81;;;-5.29;100.00
60433;BME280;46286;48.098;11.590;2023-04-05T01:25:52;95834.41;;;-5.33;100.00
60433;BME280;46286;48.098;11.590;2023-04-05T01:31:31;95835.41;;;-5.43;100.00
60433;BME280;46286;48.098;11.590;2023-04-05T01:34:10;95824.81;;;-5.40;100.00
60433;BME280;46286;48.098;11.590;2023-04-05T01:36:48;95826.09;;;-5.52;100.00
60433;BME280;46286;48.098;11.590;2023-04-05T01:39:16;95821.28;;;-5.55;100.00
60433;BME280;46286;48.098;11.590;2023-04-05T01:41:43;95820.31;;;-5.62;100.00
60433;BME280;46286;48.098;11.590;2023-04-05T01:44:08;95822.88;;;-5.54;100.00
60433;BME280;46286;48.098;11.590;2023-04-05T01:46:34;95823.84;;;-5.63;100.00
60433;BME280;46286;48.098;11.590;2023-04-05T01:49:00;95823.53;;;-5.60;100.00
60433;BME280;46286;48.098;11.590;2023-04-05T01:51:26;95806.53;;;-5.61;100.00
60433;BME280;46286;48.098;11.590;2023-04-05T01:53:52;95812.63;;;-5.70;100.00
60433;BME280;46286;48.098;11.590;2023-04-05T01:56:17;95813.13;;;-5.67;100.00
60433;BME280;46286;48.098;11.590;2023-04-05T01:58:43;95805.72;;;-5.62;100.00
60433;BME280;46286;48.098;11.590;2023-04-05T02:01:09;95810.06;;;-5.62;100.00
60433;BME280;46286;48.098;11.590;2023-04-05T02:03:34;95808.16;;;-5.68;100.00
60433;BME280;46286;48.098;11.590;2023-04-05T02:06:00;95807.81;;;-5.74;100.00
60433;BME280;46286;48.098;11.590;2023-04-05T02:08:26;95809.09;;;-5.69;100.00
60433;BME280;46286;48.098;11.590;2023-04-05T02:10:52;95811.34;;;-5.75;100.00
60433;BME280;46286;48.098;11.590;2023-04-05T02:13:17;95805.59;;;-5.68;100.00
60433;BME280;46286;48.098;11.590;2023-04-05T02:15:49;95803.66;;;-5.75;100.00
60433;BME280;46286;48.098;11.590;2023-04-05T02:18:16;95800.78;;;-5.80;100.00
60433;BME280;46286;48.098;11.590;2023-04-05T02:20:50;95792.91;;;-5.86;100.00
60433;BME280;46286;48.098;11.590;2023-04-05T02:23:18;95796.28;;;-5.86;100.00
60433;BME280;46286;48.098;11.590;2023-04-05T02:25:44;95802.03;;;-5.84;100.00
60433;BME280;46286;48.098;11.590;2023-04-05T02:28:10;95799.81;;;-5.87;100.00
60433;BME280;46286;48.098;11.590;2023-04-05T02:30:35;95797.88;;;-5.93;100.00
60433;BME280;46286;48.098;11.590;2023-04-05T02:33:01;95794.66;;;-5.95;100.00
60433;BME280;46286;48.098;11.590;2023-04-05T02:35:27;95786.03;;;-5.94;100.00
60433;BME280;46286;48.098;11.590;2023-04-05T02:37:52;95786.38;;;-5.97;100.00
60433;BME280;46286;48.098;11.590;2023-04-05T02:40:18;95784.41;;;-5.95;100.00
60433;BME280;46286;48.098;11.590;2023-04-05T02:42:45;95781.56;;;-6.00;100.00
60433;BME280;46286;48.098;11.590;2023-04-05T02:45:11;95773.22;;;-6.02;100.00
60433;BME280;46286;48.098;11.590;2023-04-05T02:47:37;95782.84;;;-6.04;100.00
60433;BME280;46286;48.098;11.590;2023-04-05T02:50:02;95777.38;;;-6.10;100.00
60433;BME280;46286;48.098;11.590;2023-04-05T02:52:28;95779.47;;;-6.13;100.00
60433;BME280;46286;48.098;11.590;2023-04-05T02:54:53;95778.50;;;-5.96;100.00
60433;BME280;46286;48.098;11.590;2023-04-05T02:57:19;95778.97;;;-5.92;100.00
60433;BME280;46286;48.098;11.590;2023-04-05T02:59:45;95781.25;;;-5.97;100.00
60433;BME280;46286;48.098;11.590;2023-04-05T03:02:11;95787.63;;;-5.93;100.00
60433;BME280;46286;48.098;11.590;2023-04-05T03:04:36;95783.47;;;-6.02;100.00
60433;BME280;46286;48.098;11.590;2023-04-05T03:07:03;95788.09;;;-5.89;100.00
60433;BME280;46286;48.098;11.590;2023-04-05T03:09:29;95780.28;;;-6.04;100.00
60433;BME280;46286;48.098;11.590;2023-04-05T03:12:02;95777.69;;;-6.21;100.00
60433;BME280;46286;48.098;11.590;2023-04-05T03:14:32;95769.03;;;-6.28;100.00
60433;BME280;46286;48.098;11.590;2023-04-05T03:16:58;95779.63;;;-6.15;100.00
60433;BME280;46286;48.098;11.590;2023-04-05T03:19:24;95773.88;;;-6.08;100.00
60433;BME280;46286;48.098;11.590;2023-04-05T03:21:51;95764.91;;;-6.04;100.00
60433;BME280;46286;48.098;11.590;2023-04-05T03:24:16;95769.06;;;-6.03;100.00
60433;BME280;46286;48.098;11.590;2023-04-05T03:26:44;95772.56;;;-5.96;100.00
60433;BME280;46286;48.098;11.590;2023-04-05T03:29:10;95771.31;;;-6.00;100.00
60433;BME280;46286;48.098;11.590;2023-04-05T03:31:36;95773.22;;;-6.02;100.00
60433;BME280;46286;48.098;11.590;2023-04-05T03:34:01;95766.19;;;-6.00;100.00
60433;BME280;46286;48.098;11.590;2023-04-05T03:36:27;95769.38;;;-6.06;100.00
60433;BME280;46286;48.098;11.590;2023-04-05T03:39:15;95768.75;;;-6.08;100.00
60433;BME280;46286;48.098;11.590;2023-04-05T03:41:40;95765.69;;;-6.04;100.00
60433;BME280;46286;48.098;11.590;2023-04-05T03:44:07;95766.50;;;-6.03;100.00
60433;BME280;46286;48.098;11.590;2023-04-05T03:46:33;95762.66;;;-6.07;100.00
60433;BME280;46286;48.098;11.590;2023-04-05T03:48:59;95765.53;;;-6.11;100.00
60433;BME280;46286;48.098;11.590;2023-04-05T03:51:26;95760.41;;;-6.11;100.00
60433;BME280;46286;48.098;11.590;2023-04-05T03:53:51;95767.13;;;-6.10;100.00
60433;BME280;46286;48.098;11.590;2023-04-05T03:56:17;95764.56;;;-6.10;100.00
60433;BME280;46286;48.098;11.590;2023-04-05T03:58:43;95766.16;;;-6.17;100.00
60433;BME280;46286;48.098;11.590;2023-04-05T04:01:10;95767.44;;;-6.29;100.00
60433;BME280;46286;48.098;11.590;2023-04-05T04:03:36;95765.34;;;-6.34;100.00
60433;BME280;46286;48.098;11.590;2023-04-05T04:06:03;95768.25;;;-6.29;100.00
60433;BME280;46286;48.098;11.590;2023-04-05T04:08:28;95762.63;;;-6.32;100.00
60433;BME280;46286;48.098;11.590;2023-04-05T04:10:54;95762.47;;;-6.31;100.00
60433;BME280;46286;48.098;11.590;2023-04-05T04:13:19;95765.19;;;-6.24;100.00
60433;BME280;46286;48.098;11.590;2023-04-05T04:15:45;95765.19;;;-6.24;100.00
60433;BME280;46286;48.098;11.590;2023-04-05T04:18:10;95757.19;;;-6.29;100.00
60433;BME280;46286;48.098;11.590;2023-04-05T04:20:37;95757.19;;;-6.29;100.00
60433;BME280;46286;48.098;11.590;2023-04-05T04:23:03;95761.50;;;-6.30;100.00
60433;BME280;46286;48.098;11.590;2023-04-05T04:25:31;95755.25;;;-6.35;100.00
60433;BME280;46286;48.098;11.590;2023-04-05T04:27:57;95753.00;;;-6.38;100.00
60433;BME280;46286;48.098;11.590;2023-04-05T04:30:23;95754.44;;;-6.44;100.00
60433;BME280;46286;48.098;11.590;2023-04-05T04:32:49;95755.56;;;-6.38;100.00
60433;BME280;46286;48.098;11.590;2023-04-05T04:38:01;95766.16;;;-6.33;100.00
60433;BME280;46286;48.098;11.590;2023-04-05T04:40:32;95761.34;;;-6.36;100.00
60433;BME280;46286;48.098;11.590;2023-04-05T04:43:07;95763.38;;;-6.48;100.00
60433;BME280;46286;48.098;11.590;2023-04-05T04:45:42;95762.59;;;-6.49;100.00
60433;BME280;46286;48.098;11.590;2023-04-05T04:48:11;95760.66;;;-6.47;100.00
60433;BME280;46286;48.098;11.590;2023-04-05T04:50:39;95760.66;;;-6.47;100.00
60433;BME280;46286;48.098;11.590;2023-04-05T04:53:04;95756.00;;;-6.59;100.00
60433;BME280;46286;48.098;11.590;2023-04-05T04:55:31;95763.22;;;-6.55;100.00
60433;BME280;46286;48.098;11.590;2023-04-05T04:57:58;95766.41;;;-6.53;100.00
60433;BME280;46286;48.098;11.590;2023-04-05T05:00:24;95762.25;;;-6.54;100.00
60433;BME280;46286;48.098;11.590;2023-04-05T05:02:51;95764.50;;;-6.51;100.00
60433;BME280;46286;48.098;11.590;2023-04-05T05:05:18;95771.88;;;-6.48;100.00
60433;BME280;46286;48.098;11.590;2023-04-05T05:07:47;95769.66;;;-6.42;100.00
60433;BME280;46286;48.098;11.590;2023-04-05T05:10:13;95760.06;;;-6.40;100.00
60433;BME280;46286;48.098;11.590;2023-04-05T05:12:43;95760.06;;;-6.40;100.00
60433;BME280;46286;48.098;11.590;2023-04-05T05:15:10;95767.25;;;-6.44;100.00
60433;BME280;46286;48.098;11.590;2023-04-05T05:17:35;95764.22;;;-6.31;100.00
60433;BME280;46286;48.098;11.590;2023-04-05T05:20:02;95765.84;;;-6.30;100.00
60433;BME280;46286;48.098;11.590;2023-04-05T05:22:34;95755.91;;;-6.33;100.00
60433;BME280;46286;48.098;11.590;2023-04-05T05:25:00;95761.69;;;-6.23;100.00
60433;BME280;46286;48.098;11.590;2023-04-05T05:27:26;95758.63;;;-6.27;100.00
60433;BME280;46286;48.098;11.590;2023-04-05T05:29:52;95762.97;;;-6.19;100.00
60433;BME280;46286;48.098;11.590;2023-04-05T05:32:18;95753.69;;;-6.12;100.00
60433;BME280;46286;48.098;11.590;2023-04-05T05:34:44;95764.06;;;-5.97;100.00
60433;BME280;46286;48.098;11.590;2023-04-05T05:37:10;95770.31;;;-5.91;100.00
60433;BME280;46286;48.098;11.590;2023-04-05T05:39:37;95762.97;;;-5.86;100.00
60433;BME280;46286;48.098;11.590;2023-04-05T05:42:02;95767.78;;;-5.83;100.00
60433;BME280;46286;48.098;11.590;2023-04-05T05:44:29;95768.56;;;-5.74;100.00
60433;BME280;46286;48.098;11.590;2023-04-05T05:46:55;95766.97;;;-5.67;100.00
60433;BME280;46286;48.098;11.590;2023-04-05T05:49:20;95776.06;;;-5.56;100.00
60433;BME280;46286;48.098;11.590;2023-04-05T05:51:48;95774.47;;;-5.49;100.00
60433;BME280;46286;48.098;11.590;2023-04-05T05:54:14;95782.31;;;-5.34;100.00
60433;BME280;46286;48.098;11.590;2023-04-05T05:56:40;95781.19;;;-5.31;100.00
60433;BME280;46286;48.098;11.590;2023-04-05T05:59:05;95777.91;;;-5.09;100.00
60433;BME280;46286;48.098;11.590;2023-04-05T06:01:31;95785.59;;;-4.92;100.00
60433;BME280;46286;48.098;11.590;2023-04-05T06:03:59;95785.41;;;-4.91;100.00
60433;BME280;46286;48.098;11.590;2023-04-05T06:06:25;95783.97;;;-4.85;100.00
60433;BME280;46286;48.098;11.590;2023-04-05T06:08:51;95783.44;;;-4.80;100.00
60433;BME280;46286;48.098;11.590;2023-04-05T06:11:21;95780.38;;;-4.76;100.00
60433;BME280;46286;48.098;11.590;2023-04-05T06:13:48;95786.44;;;-4.68;100.00
60433;BME280;46286;48.098;11.590;2023-04-05T06:16:16;95782.69;;;-4.49;100.00
60433;BME280;46286;48.098;11.590;2023-04-05T06:18:42;95789.50;;;-4.33;100.00
60433;BME280;46286;48.098;11.590;2023-04-05T06:21:08;95792.38;;;-4.28;100.00
60433;BME280;46286;48.098;11.590;2023-04-05T06:23:33;95789.31;;;-4.24;100.00
60433;BME280;46286;48.098;11.590;2023-04-05T06:25:59;95777.66;;;-4.11;100.00
60433;BME280;46286;48.098;11.590;2023-04-05T06:28:25;95793.78;;;-3.94;100.00
60433;BME280;46286;48.098;11.590;2023-04-05T06:30:50;95792.63;;;-3.92;100.00
60433;BME280;46286;48.098;11.590;2023-04-05T06:33:16;95792.06;;;-3.79;100.00
60433;BME280;46286;48.098;11.590;2023-04-05T06:35:41;95784.25;;;-3.71;100.00
60433;BME280;46286;48.098;11.590;2023-04-05T06:38:07;95785.16;;;-3.40;100.00
60433;BME280;46286;48.098;11.590;2023-04-05T06:40:33;95778.59;;;-3.43;100.00
60433;BME280;46286;48.098;11.590;2023-04-05T06:42:59;95777.63;;;-3.42;100.00
60433;BME280;46286;48.098;11.590;2023-04-05T06:45:24;95779.03;;;-3.39;100.00
60433;BME280;46286;48.098;11.590;2023-04-05T06:47:50;95777.03;;;-3.14;100.00
60433;BME280;46286;48.098;11.590;2023-04-05T06:50:16;95781.81;;;-2.81;100.00
60433;BME280;46286;48.098;11.590;2023-04-05T06:52:42;95781.91;;;-2.89;100.00
60433;BME280;46286;48.098;11.590;2023-04-05T06:55:07;95783.88;;;-2.91;100.00
60433;BME280;46286;48.098;11.590;2023-04-05T06:57:34;95778.00;;;-2.85;100.00
60433;BME280;46286;48.098;11.590;2023-04-05T07:00:00;95771.44;;;-2.73;100.00
60433;BME280;46286;48.098;11.590;2023-04-05T07:02:26;95773.66;;;-2.18;100.00
60433;BME280;46286;48.098;11.590;2023-04-05T07:04:51;95767.75;;;-2.12;100.00
60433;BME280;46286;48.098;11.590;2023-04-05T07:07:17;95768.13;;;-2.15;100.00
60433;BME280;46286;48.098;11.590;2023-04-05T07:09:43;95774.84;;;-2.14;100.00
60433;BME280;46286;48.098;11.590;2023-04-05T07:12:08;95773.03;;;-1.99;100.00
60433;BME280;46286;48.098;11.590;2023-04-05T07:14:35;95778.06;;;-2.12;100.00
60433;BME280;46286;48.098;11.590;2023-04-05T07:17:05;95772.91;;;-1.69;100.00
60433;BME280;46286;48.098;11.590;2023-04-05T07:19:32;95772.16;;;-1.63;100.00
60433;BME280;46286;48.098;11.590;2023-04-05T07:21:58;95761.47;;;-1.81;100.00
60433;BME280;46286;48.098;11.590;2023-04-05T07:24:24;95767.38;;;-1.66;100.00
60433;BME280;46286;48.098;11.590;2023-04-05T07:26:50;95770.81;;;-1.59;100.00
60433;BME280;46286;48.098;11.590;2023-04-05T07:29:15;95773.19;;;-1.57;100.00
60433;BME280;46286;48.098;11.590;2023-04-05T07:31:41;95776.31;;;-1.40;100.00
60433;BME280;46286;48.098;11.590;2023-04-05T07:34:07;95773.41;;;-1.02;100.00
60433;BME280;46286;48.098;11.590;2023-04-05T07:36:32;95778.22;;;-0.92;100.00
60433;BME280;46286;48.098;11.590;2023-04-05T07:38:59;95771.72;;;-0.81;100.00
60433;BME280;46286;48.098;11.590;2023-04-05T07:41:26;95776.56;;;-0.65;100.00
60433;BME280;46286;48.098;11.590;2023-04-05T07:43:56;95786.31;;;-0.67;100.00
60433;BME280;46286;48.098;11.590;2023-04-05T07:46:22;95784.31;;;-0.65;100.00
60433;BME280;46286;48.098;11.590;2023-04-05T07:48:47;95784.56;;;-0.60;100.00
60433;BME280;46286;48.098;11.590;2023-04-05T07:51:13;95785.91;;;-0.64;100.00
60433;BME280;46286;48.098;11.590;2023-04-05T07:53:38;95775.66;;;-0.44;100.00
60433;BME280;46286;48.098;11.590;2023-04-05T07:56:06;95774.53;;;-0.28;100.00
60433;BME280;46286;48.098;11.590;2023-04-05T07:58:32;95777.31;;;-0.29;100.00
60433;BME280;46286;48.098;11.590;2023-04-05T08:00:59;95788.06;;;-0.26;100.00
60433;BME280;46286;48.098;11.590;2023-04-05T08:03:25;95775.38;;;-0.07;100.00
60433;BME280;46286;48.098;11.590;2023-04-05T08:05:51;95781.50;;;-0.22;100.00
60433;BME280;46286;48.098;11.590;2023-04-05T08:08:17;95791.69;;;-0.20;100.00
60433;BME280;46286;48.098;11.590;2023-04-05T08:10:42;95787.06;;;-0.25;100.00
60433;BME280;46286;48.098;11.590;2023-04-05T08:13:08;95786.59;;;0.27;100.00
60433;BME280;46286;48.098;11.590;2023-04-05T08:15:33;95779.03;;;0.32;100.00
60433;BME280;46286;48.098;11.590;2023-04-05T08:18:00;95778.66;;;0.35;100.00
60433;BME280;46286;48.098;11.590;2023-04-05T08:20:25;95775.44;;;0.53;100.00
60433;BME280;46286;48.098;11.590;2023-04-05T08:22:51;95779.22;;;0.24;100.00
60433;BME280;46286;48.098;11.590;2023-04-05T08:25:16;95786.75;;;0.05;100.00
60433;BME280;46286;48.098;11.590;2023-04-05T08:27:42;95778.47;;;0.43;100.00
60433;BME280;46286;48.098;11.590;2023-04-05T08:30:08;95779.84;;;0.66;100.00
60433;BME280;46286;48.098;11.590;2023-04-05T08:32:34;95784.22;;;0.45;100.00
60433;BME280;46286;48.098;11.590;2023-04-05T08:35:00;95787.22;;;0.42;96.30
60433;BME280;46286;48.098;11.590;2023-04-05T08:37:26;95782.63;;;0.44;93.89
60433;BME280;46286;48.098;11.590;2023-04-05T08:39:52;95785.22;;;0.44;98.12
60433;BME280;46286;48.098;11.590;2023-04-05T08:42:22;95778.03;;;0.73;93.64
60433;BME280;46286;48.098;11.590;2023-04-05T08:44:51;95778.19;;;1.18;85.11
60433;BME280;46286;48.098;11.590;2023-04-05T08:47:22;95769.47;;;0.93;85.09
60433;BME280;46286;48.098;11.590;2023-04-05T08:49:48;95773.22;;;1.69;82.23
60433;BME280;46286;48.098;11.590;2023-04-05T08:52:14;95776.03;;;1.61;85.21
60433;BME280;46286;48.098;11.590;2023-04-05T08:54:40;95778.06;;;1.59;81.70
60433;BME280;46286;48.098;11.590;2023-04-05T08:57:09;95772.78;;;1.85;81.46
60433;BME280;46286;48.098;11.590;2023-04-05T08:59:37;95779.88;;;1.51;86.90
60433;BME280;46286;48.098;11.590;2023-04-05T09:02:07;95778.56;;;1.22;79.13
60433;BME280;46286;48.098;11.590;2023-04-05T09:04:36;95776.16;;;1.27;78.02
60433;BME280;46286;48.098;11.590;2023-04-05T09:07:05;95778.19;;;1.12;78.68
60433;BME280;46286;48.098;11.590;2023-04-05T09:09:35;95778.97;;;1.26;72.17
60433;BME280;46286;48.098;11.590;2023-04-05T09:12:03;95766.19;;;1.31;77.75
60433;BME280;46286;48.098;11.590;2023-04-05T09:14:29;95780.94;;;1.37;75.82
60433;BME280;46286;48.098;11.590;2023-04-05T09:17:01;95776.53;;;1.44;71.04
60433;BME280;46286;48.098;11.590;2023-04-05T09:19:28;95778.91;;;1.52;72.92
60433;BME280;46286;48.098;11.590;2023-04-05T09:22:04;95783.22;;;1.65;71.45
60433;BME280;46286;48.098;11.590;2023-04-05T09:29:40;95773.56;;;1.79;69.80
60433;BME280;46286;48.098;11.590;2023-04-05T09:32:07;95771.41;;;1.76;66.56
60433;BME280;46286;48.098;11.590;2023-04-05T09:34:34;95771.16;;;1.84;65.67
60433;BME280;46286;48.098;11.590;2023-04-05T09:37:23;95773.53;;;1.93;65.51
60433;BME280;46286;48.098;11.590;2023-04-05T09:39:49;95765.13;;;1.97;64.83
60433;BME280;46286;48.098;11.590;2023-04-05T09:42:25;95767.50;;;1.99;63.75
60433;BME280;46286;48.098;11.590;2023-04-05T09:47:25;95764.56;;;2.20;63.77
60433;BME280;46286;48.098;11.590;2023-04-05T09:49:59;95767.25;;;2.39;67.02
60433;BME280;46286;48.098;11.590;2023-04-05T09:52:30;95768.31;;;2.56;65.74
60433;BME280;46286;48.098;11.590;2023-04-05T09:55:01;95767.56;;;2.49;62.04
60433;BME280;46286;48.098;11.590;2023-04-05T09:57:27;95758.97;;;2.74;63.90
60433;BME280;46286;48.098;11.590;2023-04-05T09:59:55;95771.69;;;2.82;62.19
60433;BME280;46286;48.098;11.590;2023-04-05T10:02:21;95774.72;;;2.54;62.94
60433;BME280;46286;48.098;11.590;2023-04-05T10:04:47;95757.38;;;2.73;61.26
60433;BME280;46286;48.098;11.590;2023-04-05T10:07:15;95764.38;;;2.98;61.00
60433;BME280;46286;48.098;11.590;2023-04-05T10:09:43;95763.53;;;3.22;59.00
60433;BME280;46286;48.098;11.590;2023-04-05T10:12:12;95760.34;;;3.39;59.32
60433;BME280;46286;48.098;11.590;2023-04-05T10:14:40;95758.38;;;3.71;56.54
60433;BME280;46286;48.098;11.590;2023-04-05T10:17:26;95758.22;;;3.96;54.67
60433;BME280;46286;48.098;11.590;2023-04-05T10:22:40;95740.63;;;5.52;51.77
60433;BME280;46286;48.098;11.590;2023-04-05T10:25:12;95750.19;;;5.99;50.26
60433;BME280;46286;48.098;11.590;2023-04-05T10:27:53;95749.75;;;5.79;49.86
60433;BME280;46286;48.098;11.590;2023-04-05T10:30:23;95744.19;;;6.16;46.91
60433;BME280;46286;48.098;11.590;2023-04-05T10:33:20;95743.69;;;6.19;46.99
60433;BME280;46286;48.098;11.590;2023-04-05T10:35:49;95745.84;;;5.93;45.87
60433;BME280;46286;48.098;11.590;2023-04-05T10:38:25;95736.84;;;6.81;46.12
60433;BME280;46286;48.098;11.590;2023-04-05T10:41:08;95732.28;;;7.76;43.68
60433;BME280;46286;48.098;11.590;2023-04-05T10:43:36;95745.75;;;7.19;43.87
60433;BME280;46286;48.098;11.590;2023-04-05T10:46:05;95737.91;;;7.63;41.90
60433;BME280;46286;48.098;11.590;2023-04-05T10:48:47;95738.09;;;7.34;45.33
60433;BME280;46286;48.098;11.590;2023-04-05T10:51:19;95733.06;;;8.54;42.62
60433;BME280;46286;48.098;11.590;2023-04-05T10:53:48;95737.63;;;9.11;41.13
60433;BME280;46286;48.098;11.590;2023-04-05T10:56:15;95717.81;;;10.46;36.37
60433;BME280;46286;48.098;11.590;2023-04-05T10:58:41;95722.66;;;9.12;39.59
60433;BME280;46286;48.098;11.590;2023-04-05T11:01:08;95722.19;;;9.20;38.82
60433;BME280;46286;48.098;11.590;2023-04-05T11:08:46;95707.97;;;9.74;37.61
60433;BME280;46286;48.098;11.590;2023-04-05T11:11:16;95707.53;;;10.23;36.99
60433;BME280;46286;48.098;11.590;2023-04-05T11:13:56;95704.34;;;10.06;38.38
60433;BME280;46286;48.098;11.590;2023-04-05T11:16:23;95705.47;;;10.72;35.40
60433;BME280;46286;48.098;11.590;2023-04-05T11:19:02;95707.75;;;11.04;35.66
60433;BME280;46286;48.098;11.590;2023-04-05T11:21:28;95705.88;;;11.31;34.39
60433;BME280;46286;48.098;11.590;2023-04-05T11:23:59;95711.97;;;11.00;35.32
60433;BME280;46286;48.098;11.590;2023-04-05T11:26:51;95704.41;;;10.37;35.90
60433;BME280;46286;48.098;11.590;2023-04-05T11:29:15;95712.31;;;10.52;35.86
60433;BME280;46286;48.098;11.590;2023-04-05T11:31:57;95697.75;;;11.77;32.16
60433;BME280;46286;48.098;11.590;2023-04-05T11:34:26;95701.44;;;11.76;33.82
60433;BME280;46286;48.098;11.590;2023-04-05T11:36:51;95699.84;;;11.80;32.74
60433;BME280;46286;48.098;11.590;2023-04-05T11:41:43;95685.47;;;12.76;31.23
60433;BME280;46286;48.098;11.590;2023-04-05T11:44:13;95696.81;;;11.52;31.48
60433;BME280;46286;48.098;11.590;2023-04-05T11:46:40;95680.31;;;13.62;30.85
60433;BME280;46286;48.098;11.590;2023-04-05T11:49:06;95694.34;;;11.01;32.96
60433;BME280;46286;48.098;11.590;2023-04-05T11:51:32;95693.72;;;9.54;34.55
60433;BME280;46286;48.098;11.590;2023-04-05T11:53:58;95693.38;;;8.82;34.57
60433;BME280;46286;48.098;11.590;2023-04-05T11:56:23;95692.50;;;8.72;37.52
60433;BME280;46286;48.098;11.590;2023-04-05T11:58:49;95679.16;;;8.41;38.03
60433;BME280;46286;48.098;11.590;2023-04-05T12:01:16;95684.66;;;7.79;39.39
60433;BME280;46286;48.098;11.590;2023-04-05T12:03:42;95684.78;;;7.68;42.11
60433;BME280;46286;48.098;11.590;2023-04-05T12:06:07;95687.00;;;7.09;41.80
60433;BME280;46286;48.098;11.590;2023-04-05T12:11:08;95675.69;;;9.15;39.84
60433;BME280;46286;48.098;11.590;2023-04-05T12:13:35;95678.00;;;9.75;37.70
60433;BME280;46286;48.098;11.590;2023-04-05T12:16:02;95678.53;;;9.82;37.86
60433;BME280;46286;48.098;11.590;2023-04-05T12:18:30;95676.84;;;9.40;38.28
60433;BME280;46286;48.098;11.590;2023-04-05T12:20:57;95681.00;;;11.52;35.09
60433;BME280;46286;48.098;11.590;2023-04-05T12:23:24;95679.53;;;9.56;37.35
60433;BME280;46286;48.098;11.590;2023-04-05T12:25:52;95672.28;;;10.19;36.31
60433;BME280;46286;48.098;11.590;2023-04-05T12:28:18;95676.47;;;10.77;34.62
60433;BME280;46286;48.098;11.590;2023-04-05T12:30:56;95673.56;;;11.65;35.80
60433;BME280;46286;48.098;11.590;2023-04-05T12:33:29;95669.41;;;12.38;32.82
60433;BME280;46286;48.098;11.590;2023-04-05T12:36:06;95671.09;;;12.28;34.18
60433;BME280;46286;48.098;11.590;2023-04-05T12:38:32;95656.88;;;13.75;31.53
60433;BME280;46286;48.098;11.590;2023-04-05T12:40:59;95670.19;;;12.04;34.72
60433;BME280;46286;48.098;11.590;2023-04-05T12:43:25;95669.47;;;13.83;30.49
60433;BME280;46286;48.098;11.590;2023-04-05T12:45:53;95662.34;;;14.35;31.11
60433;BME280;46286;48.098;11.590;2023-04-05T12:48:22;95673.25;;;11.71;32.52
60433;BME280;46286;48.098;11.590;2023-04-05T12:50:50;95657.06;;;12.62;31.34
60433;BME280;46286;48.098;11.590;2023-04-05T12:53:22;95661.22;;;13.22;33.04
60433;BME280;46286;48.098;11.590;2023-04-05T12:55:53;95652.59;;;14.83;29.78
60433;BME280;46286;48.098;11.590;2023-04-05T12:58:22;95647.00;;;15.26;28.06
60433;BME280;46286;48.098;11.590;2023-04-05T13:00:48;95653.84;;;14.85;29.74
60433;BME280;46286;48.098;11.590;2023-04-05T13:03:18;95656.34;;;12.81;31.34
60433;BME280;46286;48.098;11.590;2023-04-05T13:05:47;95656.66;;;13.28;30.12
60433;BME280;46286;48.098;11.590;2023-04-05T13:08:14;95655.31;;;11.18;31.43
60433;BME280;46286;48.098;11.590;2023-04-05T13:10:43;95657.41;;;11.76;33.10
60433;BME280;46286;48.098;11.590;2023-04-05T13:13:08;95646.97;;;12.06;32.79
60433;BME280;46286;48.098;11.590;2023-04-05T13:15:34;95639.94;;;12.25;32.57